createdAt,value
2023-08-13T00:00:05.543Z,5.43
2023-08-13T00:02:32.785Z,5.93
2023-08-13T00:05:00.033Z,4.03
2023-08-13T00:07:27.265Z,5.68
2023-08-13T00:09:54.456Z,6.28
2023-08-13T00:12:23.103Z,4.75
2023-08-13T00:14:50.319Z,6.82
2023-08-13T00:17:17.510Z,5.63
2023-08-13T00:19:44.713Z,4.30
2023-08-13T00:22:12.117Z,6.63
2023-08-13T00:24:39.379Z,9.77
2023-08-13T00:27:06.603Z,8.68
2023-08-13T00:29:34.395Z,8.73
2023-08-13T00:32:01.707Z,6.50
2023-08-13T00:34:28.978Z,5.80
2023-08-13T00:36:56.182Z,12.05
2023-08-13T00:39:23.587Z,8.18
2023-08-13T00:41:50.848Z,7.75
2023-08-13T00:44:18.563Z,9.25
2023-08-13T00:46:46.915Z,7.22
2023-08-13T00:49:15.850Z,8.32
2023-08-13T00:51:44.045Z,7.53
2023-08-13T00:54:11.617Z,7.68
2023-08-13T00:56:41.999Z,7.53
2023-08-13T00:59:09.861Z,6.38
2023-08-13T01:01:37.233Z,6.82
2023-08-13T01:04:04.997Z,9.75
2023-08-13T01:06:50.736Z,6.13
2023-08-13T01:09:42.999Z,9.15
2023-08-13T01:12:19.967Z,8.27
2023-08-13T01:15:08.587Z,8.80
2023-08-13T01:17:38.490Z,7.28
2023-08-13T01:20:08.651Z,8.50
2023-08-13T01:22:46.029Z,7.13
2023-08-13T01:25:15.823Z,9.40
2023-08-13T01:27:59.400Z,7.22
2023-08-13T01:30:51.156Z,7.30
2023-08-13T01:33:28.203Z,6.35
2023-08-13T01:35:59.352Z,7.57
2023-08-13T01:38:27.404Z,8.10
2023-08-13T01:40:54.710Z,8.27
2023-08-13T01:43:21.905Z,8.95
2023-08-13T01:45:49.164Z,8.30
2023-08-13T01:48:16.416Z,9.13
2023-08-13T01:50:43.821Z,8.15
2023-08-13T01:53:11.042Z,7.65
2023-08-13T01:55:38.376Z,9.40
2023-08-13T01:58:05.611Z,5.93
2023-08-13T02:00:32.883Z,6.93
2023-08-13T02:03:00.145Z,7.20
2023-08-13T02:05:27.413Z,6.97
2023-08-13T02:07:55.048Z,11.75
2023-08-13T02:10:22.255Z,12.27
2023-08-13T02:12:49.481Z,10.38
2023-08-13T02:15:16.744Z,6.95
2023-08-13T02:17:43.968Z,12.40
2023-08-13T02:20:12.339Z,10.02
2023-08-13T02:22:39.620Z,7.93
2023-08-13T02:25:07.517Z,7.10
2023-08-13T02:27:34.714Z,8.70
2023-08-13T02:30:03.805Z,6.70
2023-08-13T02:32:31.061Z,8.60
2023-08-13T02:34:58.389Z,7.45
2023-08-13T02:37:25.586Z,7.60
2023-08-13T02:39:52.845Z,6.45
2023-08-13T02:42:20.056Z,8.07
2023-08-13T02:44:47.257Z,7.97
2023-08-13T02:47:15.564Z,6.78
2023-08-13T02:49:42.750Z,7.32
2023-08-13T02:52:10.188Z,7.72
2023-08-13T02:54:37.459Z,8.57
2023-08-13T02:57:04.902Z,9.57
2023-08-13T02:59:32.097Z,7.05
2023-08-13T03:01:59.323Z,8.43
2023-08-13T03:04:26.558Z,8.88
2023-08-13T03:06:53.884Z,6.25
2023-08-13T03:09:23.547Z,8.90
2023-08-13T03:11:50.786Z,8.40
2023-08-13T03:14:18.112Z,7.80
2023-08-13T03:16:45.356Z,11.43
2023-08-13T03:19:12.559Z,8.15
2023-08-13T03:21:39.830Z,8.38
2023-08-13T03:24:07.458Z,9.18
2023-08-13T03:26:34.691Z,9.52
2023-08-13T03:29:01.913Z,10.35
2023-08-13T03:31:29.131Z,8.63
2023-08-13T03:33:56.355Z,12.65
2023-08-13T03:36:23.543Z,14.63
2023-08-13T03:38:50.789Z,8.88
2023-08-13T03:41:17.970Z,8.88
2023-08-13T03:43:45.165Z,6.38
2023-08-13T03:46:12.437Z,10.02
2023-08-13T03:48:39.716Z,9.40
2023-08-13T03:51:07.062Z,22.38
2023-08-13T03:53:34.301Z,7.70
2023-08-13T03:56:01.575Z,11.15
2023-08-13T03:58:29.438Z,7.93
2023-08-13T04:00:56.686Z,11.13
2023-08-13T04:03:26.350Z,8.57
2023-08-13T04:05:54.536Z,11.55
2023-08-13T04:08:21.865Z,11.57
2023-08-13T04:10:53.769Z,11.15
2023-08-13T04:13:21.066Z,9.87
2023-08-13T04:15:48.448Z,7.82
2023-08-13T04:18:15.758Z,8.77
2023-08-13T04:20:43.571Z,14.30
2023-08-13T04:23:11.097Z,10.23
2023-08-13T04:25:38.425Z,10.73
2023-08-13T04:28:06.566Z,9.70
2023-08-13T04:30:33.830Z,14.85
2023-08-13T04:33:03.780Z,12.48
2023-08-13T04:35:31.093Z,10.25
2023-08-13T04:37:58.341Z,11.05
2023-08-13T04:40:25.701Z,9.70
2023-08-13T04:42:53.208Z,12.63
2023-08-13T04:45:20.601Z,12.05
2023-08-13T04:47:47.873Z,12.85
2023-08-13T04:50:15.636Z,10.13
2023-08-13T04:52:43.262Z,15.68
2023-08-13T04:55:10.764Z,9.48
2023-08-13T04:57:37.987Z,15.55
2023-08-13T05:00:06.283Z,9.57
2023-08-13T05:02:33.498Z,9.02
2023-08-13T05:05:00.818Z,12.80
2023-08-13T05:07:28.041Z,9.85
2023-08-13T05:09:55.281Z,11.63
2023-08-13T05:12:22.488Z,8.20
2023-08-13T05:14:49.702Z,7.97
2023-08-13T05:17:19.802Z,10.48
2023-08-13T05:19:47.854Z,8.75
2023-08-13T05:22:15.965Z,9.25
2023-08-13T05:24:43.969Z,10.10
2023-08-13T05:27:11.174Z,13.63
2023-08-13T05:29:39.116Z,10.63
2023-08-13T05:32:06.724Z,11.63
2023-08-13T05:34:34.092Z,10.55
2023-08-13T05:37:01.317Z,9.25
2023-08-13T05:39:28.556Z,10.80
2023-08-13T05:41:55.781Z,12.82
2023-08-13T05:44:23.451Z,10.07
2023-08-13T05:46:50.674Z,11.05
2023-08-13T05:49:17.914Z,8.32
2023-08-13T05:51:45.228Z,10.07
2023-08-13T05:54:13.568Z,11.20
2023-08-13T05:56:41.231Z,11.23
2023-08-13T05:59:08.477Z,9.65
2023-08-13T06:01:35.704Z,12.45
2023-08-13T06:04:03.499Z,13.00
2023-08-13T06:06:30.772Z,9.25
2023-08-13T06:08:57.982Z,14.13
2023-08-13T06:11:25.228Z,11.05
2023-08-13T06:13:52.610Z,7.80
2023-08-13T06:16:20.458Z,6.68
2023-08-13T06:18:48.214Z,12.02
2023-08-13T06:21:15.487Z,10.48
2023-08-13T06:23:42.678Z,8.80
2023-08-13T06:26:09.915Z,10.88
2023-08-13T06:28:38.584Z,10.38
2023-08-13T06:31:06.562Z,11.25
2023-08-13T06:33:33.945Z,13.70
2023-08-13T06:36:01.338Z,17.48
2023-08-13T06:38:30.006Z,16.08
2023-08-13T06:41:03.874Z,20.48
2023-08-13T06:43:31.122Z,16.67
2023-08-13T06:45:58.318Z,20.15
2023-08-13T06:48:27.464Z,21.17
2023-08-13T06:50:58.994Z,20.05
2023-08-13T06:53:27.236Z,15.25
2023-08-13T06:55:54.812Z,13.80
2023-08-13T06:58:22.051Z,8.23
2023-08-13T07:00:49.235Z,11.85
2023-08-13T07:03:16.448Z,11.43
2023-08-13T07:05:43.679Z,8.30
2023-08-13T07:08:11.302Z,10.68
2023-08-13T07:10:39.928Z,8.68
2023-08-13T07:13:07.889Z,13.55
2023-08-13T07:15:35.146Z,9.30
2023-08-13T07:18:02.801Z,14.00
2023-08-13T07:20:30.101Z,8.95
2023-08-13T07:22:59.585Z,8.40
2023-08-13T07:25:26.877Z,9.18
2023-08-13T07:27:55.137Z,7.68
2023-08-13T07:30:22.493Z,13.23
2023-08-13T07:32:49.797Z,10.23
2023-08-13T07:35:17.081Z,9.32
2023-08-13T07:37:44.299Z,9.15
2023-08-13T07:40:13.611Z,12.32
2023-08-13T07:42:42.568Z,8.68
2023-08-13T07:45:12.439Z,15.55
2023-08-13T07:47:40.772Z,7.07
2023-08-13T07:50:08.915Z,8.25
2023-08-13T07:52:36.451Z,9.82
2023-08-13T07:55:04.575Z,9.55
2023-08-13T07:57:32.284Z,12.13
2023-08-13T07:59:59.977Z,7.38
2023-08-13T08:02:27.249Z,7.05
2023-08-13T08:04:55.194Z,7.43
2023-08-13T08:07:23.062Z,6.40
2023-08-13T08:09:50.329Z,7.43
2023-08-13T08:12:17.806Z,6.65
2023-08-13T08:14:45.338Z,9.05
2023-08-13T08:17:12.571Z,8.23
2023-08-13T08:19:39.794Z,8.13
2023-08-13T08:22:06.995Z,7.75
2023-08-13T08:24:34.287Z,8.35
2023-08-13T08:27:01.529Z,9.40
2023-08-13T08:29:28.698Z,9.05
2023-08-13T08:31:55.916Z,8.10
2023-08-13T08:34:23.093Z,6.97
2023-08-13T08:36:50.317Z,7.32
2023-08-13T08:39:17.503Z,7.32
2023-08-13T08:41:47.876Z,9.02
2023-08-13T08:44:22.079Z,7.32
2023-08-13T08:46:54.899Z,7.00
2023-08-13T08:49:22.931Z,9.30
2023-08-13T08:51:51.604Z,6.55
2023-08-13T08:54:19.704Z,6.93
2023-08-13T08:56:46.893Z,6.22
2023-08-13T08:59:14.212Z,9.30
2023-08-13T09:01:41.953Z,6.60
2023-08-13T09:04:10.159Z,7.10
2023-08-13T09:06:55.399Z,7.65
2023-08-13T09:09:23.503Z,6.30
2023-08-13T09:11:52.144Z,5.22
2023-08-13T09:14:20.465Z,8.02
2023-08-13T09:16:52.722Z,9.38
2023-08-13T09:19:24.949Z,6.00
2023-08-13T09:22:02.863Z,5.13
2023-08-13T09:24:37.752Z,6.35
2023-08-13T09:27:07.636Z,7.32
2023-08-13T09:29:37.950Z,4.75
2023-08-13T09:32:06.216Z,5.32
2023-08-13T09:34:34.821Z,4.43
2023-08-13T09:37:02.596Z,4.88
2023-08-13T09:39:34.865Z,5.15
2023-08-13T09:42:06.799Z,9.95
2023-08-13T09:47:04.630Z,6.05
2023-08-13T09:49:34.915Z,7.07
2023-08-13T09:52:10.636Z,7.18
2023-08-13T09:54:49.859Z,6.75
2023-08-13T09:57:18.554Z,5.00
2023-08-13T09:59:46.718Z,5.43
2023-08-13T10:02:16.152Z,5.53
2023-08-13T10:04:43.790Z,8.07
2023-08-13T10:07:13.576Z,9.85
2023-08-13T10:09:41.874Z,9.48
2023-08-13T10:12:11.368Z,7.32
2023-08-13T10:14:39.924Z,7.50
2023-08-13T10:17:08.196Z,8.32
2023-08-13T10:19:49.017Z,10.65
2023-08-13T10:22:35.936Z,8.15
2023-08-13T10:25:04.397Z,7.07
2023-08-13T10:27:36.922Z,7.10
2023-08-13T10:30:14.210Z,7.68
2023-08-13T10:32:55.316Z,6.93
2023-08-13T10:35:40.245Z,9.30
2023-08-13T10:38:11.218Z,7.10
2023-08-13T10:41:00.808Z,5.45
2023-08-13T10:43:28.036Z,5.20
2023-08-13T10:45:56.236Z,10.50
2023-08-13T10:48:30.923Z,7.57
2023-08-13T10:50:59.155Z,10.75
2023-08-13T10:53:28.738Z,10.45
2023-08-13T10:56:01.473Z,7.03
2023-08-13T10:58:38.304Z,4.70
2023-08-13T11:01:14.504Z,9.20
2023-08-13T11:03:54.228Z,6.70
2023-08-13T11:06:24.012Z,8.75
2023-08-13T11:08:52.198Z,4.93
2023-08-13T11:11:20.990Z,6.50
2023-08-13T11:13:50.263Z,9.55
2023-08-13T11:16:17.941Z,8.05
2023-08-13T11:18:45.739Z,6.75
2023-08-13T11:21:13.295Z,10.52
2023-08-13T11:23:40.725Z,10.48
2023-08-13T11:26:09.330Z,9.98
2023-08-13T11:28:36.882Z,9.15
2023-08-13T11:31:04.132Z,6.93
2023-08-13T11:33:31.596Z,8.48
2023-08-13T11:35:59.923Z,13.15
2023-08-13T11:38:27.657Z,8.70
2023-08-13T11:40:55.660Z,12.20
2023-08-13T11:43:23.598Z,13.80
2023-08-13T11:45:51.272Z,8.82
2023-08-13T11:48:22.049Z,7.70
2023-08-13T11:51:09.016Z,7.38
2023-08-13T11:53:43.545Z,13.50
2023-08-13T11:56:16.117Z,10.77
2023-08-13T11:58:43.649Z,7.47
2023-08-13T12:01:12.854Z,11.52
2023-08-13T12:03:43.899Z,10.70
2023-08-13T12:06:12.388Z,7.10
2023-08-13T12:08:46.549Z,9.10
2023-08-13T12:11:13.924Z,9.27
2023-08-13T12:13:42.933Z,10.15
2023-08-13T12:16:10.419Z,8.70
2023-08-13T12:18:38.088Z,8.88
2023-08-13T12:21:05.316Z,7.93
2023-08-13T12:23:32.691Z,6.30
2023-08-13T12:26:03.195Z,7.35
2023-08-13T12:28:30.761Z,8.23
2023-08-13T12:30:58.186Z,7.88
2023-08-13T12:33:25.440Z,6.40
2023-08-13T12:35:52.656Z,8.10
2023-08-13T12:38:19.920Z,7.10
2023-08-13T12:40:47.229Z,8.75
2023-08-13T12:43:14.411Z,4.97
2023-08-13T12:45:41.669Z,7.63
2023-08-13T12:48:08.907Z,11.68
2023-08-13T12:50:36.340Z,10.18
2023-08-13T12:53:04.493Z,8.38
2023-08-13T12:55:31.929Z,8.40
2023-08-13T12:57:59.155Z,6.30
2023-08-13T13:00:26.361Z,7.72
2023-08-13T13:02:53.623Z,7.32
2023-08-13T13:05:21.066Z,6.63
2023-08-13T13:07:48.464Z,9.73
2023-08-13T13:10:15.828Z,6.72
2023-08-13T13:12:43.135Z,10.00
2023-08-13T13:15:10.750Z,8.90
2023-08-13T13:17:37.977Z,9.52
2023-08-13T13:20:11.809Z,8.38
2023-08-13T13:22:42.939Z,7.68
2023-08-13T13:25:14.805Z,7.53
2023-08-13T13:27:43.007Z,7.15
2023-08-13T13:30:12.566Z,9.77
2023-08-13T13:32:40.193Z,5.72
2023-08-13T13:35:08.506Z,5.30
2023-08-13T13:37:35.731Z,9.20
2023-08-13T13:40:05.136Z,11.10
2023-08-13T13:42:32.617Z,10.00
2023-08-13T13:44:59.906Z,5.70
2023-08-13T13:47:27.220Z,9.57
2023-08-13T13:49:54.505Z,7.40
2023-08-13T13:52:22.024Z,7.13
2023-08-13T13:54:51.918Z,7.90
2023-08-13T13:57:19.926Z,8.00
2023-08-13T13:59:47.184Z,8.32
2023-08-13T14:02:14.627Z,6.47
2023-08-13T14:04:42.262Z,8.18
2023-08-13T14:07:09.507Z,8.10
2023-08-13T14:09:37.019Z,9.52
2023-08-13T14:12:04.495Z,6.03
2023-08-13T14:14:31.700Z,11.38
2023-08-13T14:16:59.043Z,6.50
2023-08-13T14:19:26.250Z,9.02
2023-08-13T14:21:53.447Z,12.32
2023-08-13T14:24:20.698Z,5.07
2023-08-13T14:26:50.495Z,6.88
2023-08-13T14:29:20.634Z,6.38
2023-08-13T14:31:48.077Z,6.57
2023-08-13T14:34:15.362Z,8.65
2023-08-13T14:36:42.820Z,7.78
2023-08-13T14:39:10.116Z,9.93
2023-08-13T14:41:37.534Z,8.23
2023-08-13T14:44:05.125Z,6.90
2023-08-13T14:46:34.658Z,6.50
2023-08-13T14:49:02.049Z,11.80
2023-08-13T14:51:29.473Z,16.45
2023-08-13T14:53:56.875Z,5.97
2023-08-13T14:56:24.198Z,7.95
2023-08-13T14:58:51.660Z,8.45
2023-08-13T15:01:18.943Z,9.00
2023-08-13T15:03:46.444Z,8.90
2023-08-13T15:06:13.782Z,5.45
2023-08-13T15:08:41.033Z,8.85
2023-08-13T15:11:08.216Z,5.65
2023-08-13T15:13:35.433Z,11.57
2023-08-13T15:16:02.957Z,8.77
2023-08-13T15:18:30.220Z,12.30
2023-08-13T15:20:57.430Z,11.88
2023-08-13T15:23:24.669Z,7.25
2023-08-13T15:28:21.959Z,5.50
2023-08-13T15:30:57.282Z,7.80
2023-08-13T15:33:26.098Z,6.93
2023-08-13T15:35:58.382Z,11.57
2023-08-13T15:40:54.741Z,9.10
2023-08-13T15:43:23.225Z,7.05
2023-08-13T15:45:50.497Z,5.07
2023-08-13T15:48:17.903Z,7.63
2023-08-13T15:50:46.492Z,6.22
2023-08-13T15:53:14.059Z,5.07
2023-08-13T15:55:42.429Z,7.40
2023-08-13T15:58:11.044Z,5.65
2023-08-13T16:00:39.693Z,6.50
2023-08-13T16:03:07.615Z,5.93
2023-08-13T16:05:35.332Z,5.57
2023-08-13T16:08:04.787Z,7.15
2023-08-13T16:10:35.676Z,12.93
2023-08-13T16:13:04.340Z,6.47
2023-08-13T16:15:31.780Z,7.57
2023-08-13T16:17:59.091Z,10.95
2023-08-13T16:20:26.423Z,10.40
2023-08-13T16:22:53.767Z,11.05
2023-08-13T16:25:21.222Z,12.43
2023-08-13T16:27:48.482Z,18.38
2023-08-13T16:30:16.173Z,10.98
2023-08-13T16:32:43.780Z,7.85
2023-08-13T16:35:11.389Z,9.02
2023-08-13T16:37:38.665Z,6.88
2023-08-13T16:40:07.063Z,5.78
2023-08-13T16:42:46.873Z,11.43
2023-08-13T16:45:18.080Z,5.10
2023-08-13T16:47:45.484Z,9.05
2023-08-13T16:50:15.399Z,6.22
2023-08-13T16:52:43.164Z,7.82
2023-08-13T16:55:10.858Z,10.55
2023-08-13T16:57:38.994Z,8.55
2023-08-13T17:00:13.012Z,7.78
2023-08-13T17:02:45.618Z,13.82
2023-08-13T17:05:13.796Z,9.18
2023-08-13T17:07:41.284Z,7.32
2023-08-13T17:10:09.736Z,9.45
2023-08-13T17:12:36.976Z,6.60
2023-08-13T17:15:21.324Z,8.80
2023-08-13T17:17:51.047Z,7.75
2023-08-13T17:20:21.286Z,8.32
2023-08-13T17:22:49.888Z,6.30
2023-08-13T17:25:17.358Z,7.63
2023-08-13T17:27:45.609Z,8.07
2023-08-13T17:30:13.470Z,6.82
2023-08-13T17:32:40.720Z,11.57
2023-08-13T17:35:08.133Z,6.65
2023-08-13T17:37:36.910Z,15.73
2023-08-13T17:40:06.168Z,36.47
2023-08-13T17:42:33.709Z,9.18
2023-08-13T17:45:00.925Z,9.23
2023-08-13T17:47:29.616Z,8.57
2023-08-13T17:49:58.192Z,9.50
2023-08-13T17:52:28.716Z,7.78
2023-08-13T17:54:55.998Z,5.88
2023-08-13T17:57:23.306Z,8.10
2023-08-13T17:59:50.867Z,6.38
2023-08-13T18:02:18.137Z,9.27
2023-08-13T18:04:47.363Z,9.40
2023-08-13T18:07:14.784Z,13.20
2023-08-13T18:09:43.298Z,7.95
2023-08-13T18:12:10.737Z,5.88
2023-08-13T18:14:37.928Z,8.18
2023-08-13T18:17:05.254Z,7.45
2023-08-13T18:19:32.466Z,7.80
2023-08-13T18:21:59.687Z,10.57
2023-08-13T18:24:26.943Z,6.43
2023-08-13T18:26:54.311Z,10.07
2023-08-13T18:29:21.884Z,6.85
2023-08-13T18:31:49.268Z,7.63
2023-08-13T18:34:17.019Z,7.07
2023-08-13T18:36:44.220Z,6.50
2023-08-13T18:39:11.434Z,10.93
2023-08-13T18:41:38.667Z,14.68
2023-08-13T18:44:06.562Z,13.10
2023-08-13T18:46:33.921Z,11.93
2023-08-13T18:49:01.161Z,13.25
2023-08-13T18:51:28.414Z,10.90
2023-08-13T18:53:57.534Z,14.00
2023-08-13T18:56:26.612Z,16.02
2023-08-13T18:58:53.861Z,10.38
2023-08-13T19:01:21.208Z,5.97
2023-08-13T19:03:49.669Z,14.65
2023-08-13T19:06:17.303Z,7.45
2023-08-13T19:08:44.637Z,9.98
2023-08-13T19:11:11.887Z,18.10
2023-08-13T19:13:39.433Z,14.05
2023-08-13T19:16:06.697Z,13.18
2023-08-13T19:18:34.020Z,15.00
2023-08-13T19:21:01.297Z,25.85
2023-08-13T19:23:28.491Z,38.58
2023-08-13T19:25:55.765Z,31.25
2023-08-13T19:28:22.939Z,22.85
2023-08-13T19:30:50.161Z,71.78
2023-08-13T19:33:17.458Z,54.65
2023-08-13T19:35:45.166Z,30.40
2023-08-13T19:38:12.477Z,29.15
2023-08-13T19:40:40.791Z,20.10
2023-08-13T19:43:08.226Z,18.90
2023-08-13T19:45:35.711Z,19.55
2023-08-13T19:48:03.610Z,15.15
2023-08-13T19:50:32.959Z,22.60
2023-08-13T19:53:00.481Z,23.40
2023-08-13T19:55:29.259Z,18.25
2023-08-13T19:57:57.151Z,16.67
2023-08-13T20:00:24.641Z,18.20
2023-08-13T20:02:51.968Z,17.30
2023-08-13T20:05:19.251Z,19.13
2023-08-13T20:07:46.457Z,19.90
2023-08-13T20:10:13.709Z,13.90
2023-08-13T20:12:41.237Z,21.02
2023-08-13T20:15:08.950Z,17.00
2023-08-13T20:17:36.716Z,17.27
2023-08-13T20:20:04.521Z,11.77
2023-08-13T20:22:31.740Z,18.00
2023-08-13T20:24:58.975Z,18.77
2023-08-13T20:27:26.195Z,20.17
2023-08-13T20:29:53.393Z,20.50
2023-08-13T20:32:20.793Z,17.67
2023-08-13T20:34:51.545Z,20.20
2023-08-13T20:37:19.110Z,13.48
2023-08-13T20:39:46.367Z,11.05
2023-08-13T20:42:13.568Z,20.05
2023-08-13T20:44:40.849Z,11.18
2023-08-13T20:47:09.624Z,16.92
2023-08-13T20:49:36.986Z,18.65
2023-08-13T20:52:06.012Z,15.95
2023-08-13T20:54:33.648Z,12.85
2023-08-13T20:57:00.917Z,13.38
2023-08-13T20:59:28.157Z,25.65
2023-08-13T21:01:55.387Z,21.33
2023-08-13T21:04:22.679Z,17.25
2023-08-13T21:06:49.889Z,17.63
2023-08-13T21:09:17.127Z,18.48
2023-08-13T21:11:44.339Z,15.45
2023-08-13T21:14:11.551Z,15.32
2023-08-13T21:16:38.986Z,10.55
2023-08-13T21:19:06.310Z,14.88
2023-08-13T21:21:33.502Z,13.52
2023-08-13T21:24:00.768Z,16.70
2023-08-13T21:26:27.989Z,18.63
2023-08-13T21:28:55.180Z,11.45
2023-08-13T21:31:22.553Z,10.63
2023-08-13T21:33:49.816Z,9.30
2023-08-13T21:36:16.992Z,13.52
2023-08-13T21:38:44.232Z,9.85
2023-08-13T21:41:11.487Z,14.65
2023-08-13T21:43:38.755Z,15.32
2023-08-13T21:46:06.109Z,15.85
2023-08-13T21:48:33.364Z,9.27
2023-08-13T21:51:00.646Z,11.25
2023-08-13T21:53:27.843Z,16.50
2023-08-13T21:55:55.774Z,15.70
2023-08-13T21:58:23.069Z,15.40
2023-08-13T22:00:50.510Z,14.55
2023-08-13T22:03:19.112Z,13.07
2023-08-13T22:05:46.511Z,19.05
2023-08-13T22:08:14.009Z,10.65
2023-08-13T22:10:42.974Z,10.27
2023-08-13T22:13:10.609Z,16.23
2023-08-13T22:15:37.897Z,15.27
2023-08-13T22:18:05.555Z,10.75
2023-08-13T22:20:33.333Z,11.05
2023-08-13T22:23:04.031Z,11.43
2023-08-13T22:25:31.302Z,10.20
2023-08-13T22:27:58.562Z,16.48
2023-08-13T22:30:25.826Z,11.75
2023-08-13T22:32:53.951Z,19.17
2023-08-13T22:35:21.616Z,11.13
2023-08-13T22:37:48.836Z,12.27
2023-08-13T22:40:16.121Z,18.02
2023-08-13T22:42:43.311Z,13.60
2023-08-13T22:45:11.310Z,10.60
2023-08-13T22:47:38.607Z,14.05
2023-08-13T22:50:07.065Z,13.48
2023-08-13T22:52:34.590Z,14.25
2023-08-13T22:55:01.835Z,11.30
2023-08-13T22:57:29.293Z,11.48
2023-08-13T22:59:56.600Z,12.57
2023-08-13T23:02:23.824Z,13.23
2023-08-13T23:04:51.223Z,12.88
2023-08-13T23:07:18.422Z,10.00
2023-08-13T23:09:45.660Z,11.93
2023-08-13T23:12:12.867Z,7.32
2023-08-13T23:14:40.420Z,10.25
2023-08-13T23:17:07.771Z,12.77
2023-08-13T23:19:35.917Z,11.85
2023-08-13T23:22:03.142Z,9.68
2023-08-13T23:24:30.371Z,14.48
2023-08-13T23:26:57.546Z,17.02
2023-08-13T23:29:24.727Z,12.10
2023-08-13T23:31:51.972Z,10.32
2023-08-13T23:34:19.272Z,8.55
2023-08-13T23:36:47.546Z,14.73
2023-08-13T23:39:14.771Z,11.57
2023-08-13T23:41:48.555Z,11.00
2023-08-13T23:44:16.629Z,14.05
2023-08-13T23:46:43.852Z,11.25
2023-08-13T23:49:11.233Z,10.07
2023-08-13T23:51:38.445Z,12.82
2023-08-13T23:54:05.668Z,13.90
2023-08-13T23:56:32.991Z,13.75
2023-08-13T23:59:00.178Z,12.85
